Time;durP1;ratioP1;P1;durP2;ratioP2;P2;SDS_P1;SDS_P2;PMS_P1;PMS_P2;Temp;Humidity;BMP_temperature;BMP_pressure;BME280_temperature;BME280_humidity;BME280_pressure;Samples;Min_cycle;Max_cycle;Signal;HPM_P1;HPM_P2
2024/04/17 00:01:21;;;;;;;1.92;1.27;;;21.60;46.70;;;;;;5424969;26;20068;-63
2024/04/17 00:03:47;;;;;;;1.90;0.90;;;21.60;46.70;;;;;;5428119;26;20007;-61
2024/04/17 00:06:13;;;;;;;1.30;0.85;;;21.60;46.70;;;;;;5426760;26;19999;-62
2024/04/17 00:08:39;;;;;;;1.80;0.93;;;21.50;46.60;;;;;;5427663;26;20005;-61
2024/04/17 00:11:04;;;;;;;1.80;1.10;;;21.60;46.70;;;;;;5430512;26;19994;-61
2024/04/17 00:13:33;;;;;;;1.55;0.95;;;21.60;46.70;;;;;;5427245;26;19996;-61
2024/04/17 00:15:59;;;;;;;1.87;1.10;;;21.50;46.60;;;;;;5429221;26;20039;-62
2024/04/17 00:18:25;;;;;;;1.73;0.90;;;21.60;46.70;;;;;;5428169;26;20079;-60
2024/04/17 00:20:51;;;;;;;1.20;0.82;;;21.50;46.60;;;;;;5428998;26;20006;-60
2024/04/17 00:23:16;;;;;;;1.30;0.80;;;21.50;46.60;;;;;;5426604;26;20004;-62
2024/04/17 00:25:42;;;;;;;1.77;1.00;;;21.50;46.60;;;;;;5428732;26;19995;-62
2024/04/17 00:28:07;;;;;;;1.63;1.00;;;21.50;46.60;;;;;;5429021;26;19996;-60
2024/04/17 00:30:33;;;;;;;1.55;0.95;;;21.50;46.60;;;;;;5427197;26;20015;-61
2024/04/17 00:32:59;;;;;;;1.65;0.93;;;21.50;46.60;;;;;;5429286;26;20411;-61
2024/04/17 00:35:25;;;;;;;1.17;0.80;;;21.50;46.70;;;;;;5434419;26;20088;-61
2024/04/17 00:37:50;;;;;;;1.58;0.90;;;21.50;46.60;;;;;;5436642;26;19995;-62
2024/04/17 00:40:16;;;;;;;1.77;1.15;;;21.50;46.60;;;;;;5438713;26;19995;-62
2024/04/17 00:42:42;;;;;;;0.85;0.70;;;21.50;46.70;;;;;;5439402;26;20006;-60
2024/04/17 00:45:07;;;;;;;1.38;0.88;;;21.50;46.70;;;;;;5440255;26;19995;-61
2024/04/17 00:47:33;;;;;;;1.23;0.90;;;21.50;46.60;;;;;;5435363;26;19994;-62
2024/04/17 00:49:59;;;;;;;1.60;0.73;;;21.50;46.60;;;;;;5438782;26;19995;-61
2024/04/17 00:52:26;;;;;;;1.60;1.00;;;21.50;46.60;;;;;;5437242;26;20011;-62
2024/04/17 00:54:53;;;;;;;1.20;0.90;;;21.50;46.70;;;;;;5436864;26;20343;-61
2024/04/17 00:57:19;;;;;;;1.13;0.80;;;21.50;46.60;;;;;;5434529;26;19991;-60
2024/04/17 00:59:45;;;;;;;1.40;0.80;;;21.50;46.60;;;;;;5437009;26;20010;-61
2024/04/17 01:02:12;;;;;;;1.00;0.70;;;21.50;46.70;;;;;;5435359;26;20011;-61
2024/04/17 01:04:38;;;;;;;1.25;0.90;;;21.50;47.20;;;;;;5435615;26;19995;-61
2024/04/17 01:07:04;;;;;;;1.10;0.75;;;21.50;46.60;;;;;;5437151;26;19995;-61
2024/04/17 01:09:30;;;;;;;1.30;0.90;;;21.50;46.60;;;;;;5433267;26;20076;-60
2024/04/17 01:11:55;;;;;;;0.90;0.70;;;21.40;46.60;;;;;;5433823;26;20022;-61
2024/04/17 01:14:21;;;;;;;1.30;0.77;;;21.40;46.60;;;;;;5435007;26;20735;-63
2024/04/17 01:16:47;;;;;;;1.73;0.90;;;21.40;46.60;;;;;;5435677;26;20031;-63
2024/04/17 01:19:14;;;;;;;1.25;0.90;;;21.50;46.70;;;;;;5435200;26;20014;-63
2024/04/17 01:21:39;;;;;;;1.50;0.85;;;21.50;46.70;;;;;;5433052;26;21036;-63
2024/04/17 01:24:05;;;;;;;1.17;0.73;;;21.40;47.10;;;;;;5432451;26;20003;-61
2024/04/17 01:26:31;;;;;;;1.27;0.75;;;21.40;46.60;;;;;;5434655;26;20097;-61
2024/04/17 01:28:57;;;;;;;1.67;1.00;;;21.40;46.60;;;;;;5436207;26;20053;-60
2024/04/17 01:31:22;;;;;;;1.27;0.80;;;21.40;46.60;;;;;;5437507;26;20359;-60
2024/04/17 01:33:48;;;;;;;1.00;0.70;;;21.40;46.60;;;;;;5435832;26;20399;-60
2024/04/17 01:36:14;;;;;;;1.48;0.80;;;21.40;46.60;;;;;;5437827;26;20042;-60
2024/04/17 01:38:40;;;;;;;1.00;0.70;;;21.40;46.60;;;;;;5432424;26;19999;-61
2024/04/17 01:41:06;;;;;;;1.08;0.70;;;21.40;46.60;;;;;;5434153;26;20004;-60
2024/04/17 01:43:32;;;;;;;1.60;0.80;;;21.40;46.60;;;;;;5430268;26;20102;-60
2024/04/17 01:45:58;;;;;;;1.27;0.80;;;21.40;46.60;;;;;;5432277;26;19995;-61
2024/04/17 01:48:24;;;;;;;1.63;0.90;;;21.40;46.60;;;;;;5431340;26;19999;-61
2024/04/17 01:50:50;;;;;;;1.02;0.80;;;21.40;46.60;;;;;;5431994;26;20006;-60
2024/04/17 01:53:16;;;;;;;1.20;0.70;;;21.40;46.70;;;;;;5429933;26;20014;-60
2024/04/17 01:55:43;;;;;;;0.93;0.70;;;21.40;46.60;;;;;;5428566;26;20003;-61
2024/04/17 01:58:09;;;;;;;0.82;0.70;;;21.40;46.70;;;;;;5430947;26;20014;-60
2024/04/17 02:00:38;;;;;;;0.80;0.70;;;21.40;47.20;;;;;;5432736;26;20004;-60
2024/04/17 02:03:04;;;;;;;1.42;0.80;;;21.40;46.70;;;;;;5434430;26;20421;-61
2024/04/17 02:05:29;;;;;;;1.30;0.80;;;21.40;46.70;;;;;;5429914;26;20015;-61
2024/04/17 02:07:55;;;;;;;1.05;0.70;;;21.30;46.60;;;;;;5429503;26;20007;-61
2024/04/17 02:10:21;;;;;;;1.38;0.98;;;21.30;46.60;;;;;;5425618;26;20373;-61
2024/04/17 02:12:46;;;;;;;1.20;0.70;;;21.40;46.70;;;;;;5432211;26;20014;-61
2024/04/17 02:15:12;;;;;;;2.72;1.00;;;21.30;46.60;;;;;;5430645;26;20003;-61
2024/04/17 02:17:37;;;;;;;1.20;0.80;;;21.30;46.60;;;;;;5432086;26;20018;-61
2024/04/17 02:20:09;;;;;;;1.35;0.80;;;21.40;46.70;;;;;;5427899;26;20373;-60
2024/04/17 02:22:35;;;;;;;0.90;0.60;;;21.30;46.60;;;;;;5426746;26;20459;-63
2024/04/17 02:25:01;;;;;;;1.05;0.73;;;21.40;46.70;;;;;;5431135;26;20003;-62
2024/04/17 02:27:26;;;;;;;0.70;0.60;;;21.30;46.60;;;;;;5426769;26;20359;-63
2024/04/17 02:29:52;;;;;;;1.20;0.80;;;21.30;46.60;;;;;;5429565;26;20366;-63
2024/04/17 02:32:18;;;;;;;1.10;0.80;;;21.30;46.60;;;;;;5428402;26;20460;-62
2024/04/17 02:34:43;;;;;;;1.20;0.70;;;21.30;46.60;;;;;;5429367;26;20007;-63
2024/04/17 02:37:09;;;;;;;0.80;0.60;;;21.30;46.60;;;;;;5429403;26;20017;-63
2024/04/17 02:39:35;;;;;;;0.88;0.70;;;21.30;46.60;;;;;;5426057;26;20089;-63
2024/04/17 02:42:01;;;;;;;0.60;0.55;;;21.30;46.60;;;;;;5430252;26;20013;-62
2024/04/17 02:44:27;;;;;;;1.10;0.70;;;21.30;46.60;;;;;;5429604;26;20335;-63
2024/04/17 02:46:52;;;;;;;0.90;0.70;;;21.30;46.60;;;;;;5429158;26;19995;-64
2024/04/17 02:49:18;;;;;;;0.93;0.70;;;21.30;46.70;;;;;;5423671;26;20045;-63
2024/04/17 02:51:45;;;;;;;1.00;0.60;;;21.30;47.20;;;;;;5433608;26;20007;-63
2024/04/17 02:54:10;;;;;;;1.05;0.60;;;21.30;46.70;;;;;;5426178;26;20003;-63
2024/04/17 02:56:36;;;;;;;0.73;0.70;;;21.30;46.70;;;;;;5430671;26;20011;-63
2024/04/17 02:59:02;;;;;;;1.17;0.80;;;21.30;46.70;;;;;;5426782;26;20031;-63
2024/04/17 03:01:27;;;;;;;1.17;0.80;;;21.30;46.70;;;;;;5430074;26;20432;-63
2024/04/17 03:03:53;;;;;;;0.70;0.60;;;21.20;46.60;;;;;;5429991;26;19998;-63
2024/04/17 03:06:19;;;;;;;1.15;0.65;;;21.30;46.60;;;;;;5431981;26;20036;-63
2024/04/17 03:08:46;;;;;;;0.70;0.68;;;21.30;46.60;;;;;;5426857;26;19996;-63
2024/04/17 03:11:12;;;;;;;1.15;0.70;;;21.30;46.60;;;;;;5431424;26;20010;-63
2024/04/17 03:13:37;;;;;;;0.70;0.65;;;21.20;46.60;;;;;;5432330;26;20456;-62
2024/04/17 03:16:03;;;;;;;0.65;0.60;;;21.20;46.60;;;;;;5433049;26;20356;-63
2024/04/17 03:18:29;;;;;;;0.50;0.50;;;21.20;46.60;;;;;;5429205;26;19998;-62
2024/04/17 03:21:02;;;;;;;1.30;0.70;;;21.30;46.60;;;;;;5427633;26;20026;-63
2024/04/17 03:23:28;;;;;;;1.02;0.70;;;21.20;46.60;;;;;;5430792;26;20128;-63
2024/04/17 03:25:58;;;;;;;0.60;0.60;;;21.20;46.60;;;;;;5426664;26;20493;-63
2024/04/17 03:28:24;;;;;;;0.85;0.60;;;21.20;46.60;;;;;;5430573;26;20004;-63
2024/04/17 03:30:49;;;;;;;1.08;0.50;;;21.20;46.60;;;;;;5423793;26;20084;-64
2024/04/17 03:33:15;;;;;;;0.77;0.50;;;21.20;46.60;;;;;;5425284;26;20000;-62
2024/04/17 03:35:41;;;;;;;0.80;0.60;;;21.20;46.60;;;;;;5430282;26;20454;-62
2024/04/17 03:38:07;;;;;;;0.73;0.60;;;21.20;46.60;;;;;;5429739;26;19999;-61
2024/04/17 03:40:33;;;;;;;0.88;0.70;;;21.20;46.60;;;;;;5428007;26;20334;-61
2024/04/17 03:42:59;;;;;;;1.00;0.70;;;21.20;46.90;;;;;;5429099;26;20072;-63
2024/04/17 03:45:24;;;;;;;0.63;0.60;;;21.20;46.60;;;;;;5433542;26;20134;-63
2024/04/17 03:47:50;;;;;;;0.85;0.60;;;21.20;46.60;;;;;;5429807;26;20002;-63
2024/04/17 03:50:16;;;;;;;1.25;0.70;;;21.20;46.60;;;;;;5426324;26;20011;-63
2024/04/17 03:52:41;;;;;;;0.80;0.65;;;21.20;46.60;;;;;;5431200;26;20003;-63
2024/04/17 03:55:07;;;;;;;0.60;0.55;;;21.20;46.60;;;;;;5428333;26;20076;-63
2024/04/17 03:57:33;;;;;;;0.73;0.60;;;21.20;46.60;;;;;;5424550;26;20439;-63
2024/04/17 03:59:58;;;;;;;1.25;0.70;;;21.20;46.60;;;;;;5441889;26;20010;-63
2024/04/17 04:02:24;;;;;;;1.20;0.60;;;21.20;46.60;;;;;;5428250;26;20002;-63
2024/04/17 04:04:50;;;;;;;0.60;0.60;;;21.20;46.60;;;;;;5424077;26;20046;-63
2024/04/17 04:07:16;;;;;;;0.88;0.60;;;21.20;46.60;;;;;;5429195;26;19999;-63
2024/04/17 04:09:41;;;;;;;0.93;0.60;;;21.20;46.60;;;;;;5421749;26;19998;-63
2024/04/17 04:12:07;;;;;;;0.70;0.60;;;21.20;46.60;;;;;;5426662;26;20139;-63
2024/04/17 04:14:32;;;;;;;0.60;0.60;;;21.20;46.60;;;;;;5426351;26;20007;-64
2024/04/17 04:16:58;;;;;;;0.70;0.63;;;21.20;46.60;;;;;;5429792;26;20308;-64
2024/04/17 04:19:24;;;;;;;0.80;0.60;;;21.20;46.60;;;;;;5425748;26;20007;-63
2024/04/17 04:21:50;;;;;;;0.65;0.50;;;21.20;46.60;;;;;;5431492;26;19999;-64
2024/04/17 04:24:16;;;;;;;0.68;0.60;;;21.20;47.20;;;;;;5429190;26;20027;-63
2024/04/17 04:26:41;;;;;;;0.50;0.50;;;21.10;46.50;;;;;;5428781;26;19999;-63
2024/04/17 04:29:07;;;;;;;0.77;0.60;;;21.20;46.60;;;;;;5433686;26;20072;-63
2024/04/17 04:31:33;;;;;;;0.52;0.50;;;21.20;46.60;;;;;;5427679;26;20000;-63
2024/04/17 04:33:59;;;;;;;0.80;0.60;;;21.10;46.60;;;;;;5430946;26;20478;-63
2024/04/17 04:36:24;;;;;;;1.15;0.70;;;21.10;46.60;;;;;;5430322;26;19999;-64
2024/04/17 04:38:50;;;;;;;1.02;0.63;;;21.20;46.70;;;;;;5427135;26;20027;-63
2024/04/17 04:41:17;;;;;;;1.25;0.80;;;21.20;46.70;;;;;;5421357;26;20011;-63
2024/04/17 04:43:43;;;;;;;0.75;0.50;;;21.20;46.70;;;;;;5422035;26;20011;-61
2024/04/17 04:46:09;;;;;;;1.10;0.60;;;21.20;46.70;;;;;;5429334;26;19999;-60
2024/04/17 04:48:35;;;;;;;0.68;0.50;;;21.20;46.70;;;;;;5427009;26;20343;-60
2024/04/17 04:51:00;;;;;;;0.90;0.60;;;21.10;46.70;;;;;;5430775;26;20003;-61
2024/04/17 04:53:26;;;;;;;1.15;0.75;;;21.10;46.70;;;;;;5432053;26;19995;-63
2024/04/17 04:55:57;;;;;;;1.90;1.00;;;21.20;46.70;;;;;;5425162;26;20002;-63
2024/04/17 04:58:23;;;;;;;1.15;0.70;;;21.20;46.70;;;;;;5440221;26;20440;-62
2024/04/17 05:00:48;;;;;;;0.60;0.60;;;21.20;46.70;;;;;;5432274;26;20014;-63
2024/04/17 05:03:14;;;;;;;0.63;0.50;;;21.20;46.70;;;;;;5432223;26;20490;-63
2024/04/17 05:05:40;;;;;;;1.83;0.60;;;21.20;46.80;;;;;;5428483;26;20007;-63
2024/04/17 05:08:06;;;;;;;0.60;0.60;;;21.10;46.70;;;;;;5424525;26;20011;-63
2024/04/17 05:10:32;;;;;;;0.77;0.60;;;21.10;46.70;;;;;;5425351;26;20096;-63
2024/04/17 05:12:57;;;;;;;0.80;0.60;;;21.10;46.70;;;;;;5426973;26;19998;-63
2024/04/17 05:15:23;;;;;;;0.93;0.68;;;21.10;46.70;;;;;;5426785;26;20116;-63
2024/04/17 05:17:48;;;;;;;1.17;0.60;;;21.10;46.70;;;;;;5427789;26;20004;-62
2024/04/17 05:20:14;;;;;;;0.95;0.63;;;21.10;46.70;;;;;;5428344;26;20008;-63
2024/04/17 05:22:40;;;;;;;0.50;0.50;;;21.10;46.80;;;;;;5430009;26;20712;-62
2024/04/17 05:25:05;;;;;;;0.75;0.60;;;21.10;46.80;;;;;;5431233;26;20364;-62
2024/04/17 05:27:31;;;;;;;0.77;0.60;;;21.10;46.80;;;;;;5431920;26;20011;-63
2024/04/17 05:29:57;;;;;;;1.10;0.50;;;21.10;46.80;;;;;;5435405;26;20002;-63
2024/04/17 05:32:22;;;;;;;0.85;0.60;;;21.10;46.80;;;;;;5432433;26;20003;-63
2024/04/17 05:34:48;;;;;;;0.85;0.60;;;21.10;46.80;;;;;;5429197;26;21031;-63
2024/04/17 05:37:13;;;;;;;1.67;0.60;;;21.10;46.80;;;;;;5429693;26;20328;-63
2024/04/17 05:39:39;;;;;;;0.63;0.60;;;21.10;46.80;;;;;;5432117;26;20035;-63
2024/04/17 05:42:05;;;;;;;0.93;0.60;;;21.10;46.80;;;;;;5430446;26;20000;-62
2024/04/17 05:44:31;;;;;;;0.80;0.60;;;21.10;47.40;;;;;;5428686;26;20075;-60
2024/04/17 05:46:57;;;;;;;1.23;0.70;;;21.10;46.80;;;;;;5432966;26;19995;-61
2024/04/17 05:49:22;;;;;;;1.85;0.70;;;21.10;46.90;;;;;;5427496;26;20711;-61
2024/04/17 05:51:49;;;;;;;0.85;0.57;;;21.10;46.90;;;;;;5427078;26;19995;-61
2024/04/17 05:54:14;;;;;;;0.60;0.50;;;21.10;46.90;;;;;;5431105;26;20049;-62
2024/04/17 05:56:40;;;;;;;0.90;0.70;;;21.10;46.90;;;;;;5429885;26;20581;-61
2024/04/17 05:59:05;;;;;;;1.45;0.75;;;21.10;46.90;;;;;;5433134;26;20067;-61
2024/04/17 06:01:31;;;;;;;1.33;0.60;;;21.10;47.00;;;;;;5435343;26;19995;-61
2024/04/17 06:03:57;;;;;;;0.98;0.60;;;21.10;47.00;;;;;;5434105;26;20378;-60
2024/04/17 06:06:22;;;;;;;1.15;0.63;;;21.10;47.00;;;;;;5431441;26;20006;-61
2024/04/17 06:08:48;;;;;;;1.27;0.60;;;21.10;47.00;;;;;;5429259;26;20415;-61
2024/04/17 06:11:14;;;;;;;1.80;0.70;;;21.10;47.00;;;;;;5427019;26;19999;-61
2024/04/17 06:13:40;;;;;;;1.00;0.50;;;21.10;47.00;;;;;;5432169;26;19995;-61
2024/04/17 06:16:07;;;;;;;1.10;0.70;;;21.10;47.00;;;;;;5432634;26;20447;-61
2024/04/17 06:18:33;;;;;;;1.10;0.63;;;21.00;47.00;;;;;;5427192;26;20015;-61
2024/04/17 06:20:58;;;;;;;0.82;0.55;;;21.10;47.50;;;;;;5428996;26;20327;-61
2024/04/17 06:23:24;;;;;;;1.25;0.70;;;21.10;47.00;;;;;;5434937;26;19994;-61
2024/04/17 06:25:49;;;;;;;1.05;0.68;;;21.10;47.00;;;;;;5423622;26;20003;-61
2024/04/17 06:28:16;;;;;;;1.35;0.70;;;21.10;47.00;;;;;;5434545;26;20004;-61
2024/04/17 06:30:41;;;;;;;1.63;0.70;;;21.10;47.00;;;;;;5429878;26;20430;-61
2024/04/17 06:33:07;;;;;;;0.75;0.60;;;21.10;47.00;;;;;;5431435;26;20002;-60
2024/04/17 06:35:33;;;;;;;1.00;0.60;;;21.10;47.10;;;;;;5434734;26;20322;-62
2024/04/17 06:37:59;;;;;;;1.30;0.60;;;21.10;47.10;;;;;;5431356;26;20006;-62
2024/04/17 06:40:25;;;;;;;1.20;0.77;;;21.00;47.00;;;;;;5424487;26;20670;-61
2024/04/17 06:42:50;;;;;;;1.20;0.70;;;21.10;47.00;;;;;;5430291;26;20473;-61
2024/04/17 06:45:16;;;;;;;1.40;0.70;;;21.00;47.00;;;;;;5428188;26;20009;-61
2024/04/17 06:47:43;;;;;;;0.93;0.60;;;21.00;47.00;;;;;;5428662;26;20013;-61
2024/04/17 06:50:09;;;;;;;0.63;0.55;;;21.00;47.00;;;;;;5424945;26;20028;-61
2024/04/17 06:52:35;;;;;;;0.88;0.50;;;21.00;47.00;;;;;;5428891;26;20471;-63
2024/04/17 06:55:02;;;;;;;0.65;0.60;;;21.00;47.00;;;;;;5430790;26;20014;-63
2024/04/17 06:57:28;;;;;;;0.90;0.60;;;21.00;47.10;;;;;;5423512;26;20466;-63
2024/04/17 06:59:53;;;;;;;0.60;0.60;;;21.00;47.00;;;;;;5429296;26;19999;-63
2024/04/17 07:02:19;;;;;;;1.65;0.70;;;21.00;47.10;;;;;;5430485;26;20436;-63
2024/04/17 07:04:45;;;;;;;0.85;0.70;;;21.00;47.00;;;;;;5428074;26;20373;-61
2024/04/17 07:07:11;;;;;;;1.35;0.60;;;21.00;47.00;;;;;;5424350;26;20363;-60
2024/04/17 07:09:36;;;;;;;0.95;0.50;;;21.00;47.10;;;;;;5429348;26;19998;-61
2024/04/17 07:12:03;;;;;;;1.13;0.60;;;21.00;47.10;;;;;;5422339;26;20004;-61
2024/04/17 07:14:28;;;;;;;1.20;0.60;;;21.00;47.10;;;;;;5426964;26;20125;-61
2024/04/17 07:16:54;;;;;;;1.42;0.70;;;21.00;47.10;;;;;;5431788;26;20315;-61
2024/04/17 07:19:24;;;;;;;1.13;0.60;;;21.00;47.10;;;;;;5430353;26;20014;-61
2024/04/17 07:21:50;;;;;;;1.95;0.70;;;21.00;47.10;;;;;;5433049;26;20021;-61
2024/04/17 07:24:16;;;;;;;1.08;0.60;;;21.00;47.10;;;;;;5427893;26;20007;-61
2024/04/17 07:26:41;;;;;;;0.77;0.50;;;21.00;47.60;;;;;;5425588;26;20463;-61
2024/04/17 07:29:07;;;;;;;1.50;0.70;;;21.00;47.10;;;;;;5423957;26;19998;-61
2024/04/17 07:31:33;;;;;;;1.08;0.60;;;21.00;47.10;;;;;;5431331;26;20026;-60
2024/04/17 07:33:58;;;;;;;0.85;0.70;;;21.00;47.10;;;;;;5431402;26;20013;-61
2024/04/17 07:36:24;;;;;;;1.13;0.65;;;21.00;47.10;;;;;;5429699;26;20089;-61
2024/04/17 07:38:50;;;;;;;1.02;0.68;;;20.90;47.10;;;;;;5432486;26;20411;-61
2024/04/17 07:41:15;;;;;;;1.63;0.80;;;21.00;47.10;;;;;;5427770;26;19996;-61
2024/04/17 07:43:41;;;;;;;1.83;0.80;;;21.00;47.10;;;;;;5421976;26;20013;-60
2024/04/17 07:46:07;;;;;;;1.30;0.60;;;21.00;47.10;;;;;;5429035;26;19999;-60
2024/04/17 07:48:33;;;;;;;1.55;0.73;;;21.00;47.10;;;;;;5428095;26;20042;-61
2024/04/17 07:50:59;;;;;;;1.38;0.70;;;21.00;47.10;;;;;;5426306;26;20008;-62
2024/04/17 07:53:24;;;;;;;1.02;0.65;;;20.90;47.10;;;;;;5430697;26;20503;-60
2024/04/17 07:55:50;;;;;;;1.13;0.60;;;21.00;47.10;;;;;;5423701;26;19996;-61
2024/04/17 07:58:15;;;;;;;0.90;0.60;;;21.00;47.10;;;;;;5428209;26;20338;-61
2024/04/17 08:00:41;;;;;;;1.00;0.60;;;21.00;47.20;;;;;;5427809;26;20437;-60
2024/04/17 08:03:07;;;;;;;0.90;0.70;;;21.00;47.20;;;;;;5422237;26;19995;-62
2024/04/17 08:05:33;;;;;;;1.33;0.70;;;21.00;47.10;;;;;;5428954;26;20005;-63
2024/04/17 08:07:59;;;;;;;0.80;0.70;;;20.90;47.10;;;;;;5429352;26;20010;-63
2024/04/17 08:10:24;;;;;;;1.60;0.70;;;20.90;47.10;;;;;;5424174;26;20320;-63
2024/04/17 08:12:53;;;;;;;1.30;0.75;;;20.90;47.10;;;;;;5427485;26;20028;-63
2024/04/17 08:15:21;;;;;;;1.00;0.68;;;20.90;47.10;;;;;;5428593;26;19992;-62
2024/04/17 08:17:47;;;;;;;1.45;0.68;;;20.90;47.10;;;;;;5428502;26;19999;-62
2024/04/17 08:20:13;;;;;;;0.70;0.52;;;20.90;47.20;;;;;;5428108;26;20020;-62
2024/04/17 08:22:38;;;;;;;1.50;0.77;;;20.90;47.10;;;;;;5429161;26;20071;-63
2024/04/17 08:25:05;;;;;;;1.35;0.77;;;20.90;47.20;;;;;;5427025;26;20012;-60
2024/04/17 08:27:30;;;;;;;0.98;0.50;;;20.90;47.20;;;;;;5423756;26;20000;-61
2024/04/17 08:29:56;;;;;;;1.52;0.75;;;20.90;47.10;;;;;;5433967;26;20435;-60
2024/04/17 08:32:22;;;;;;;0.65;0.50;;;20.90;47.20;;;;;;5427729;26;19995;-61
2024/04/17 08:34:47;;;;;;;0.93;0.55;;;20.90;47.20;;;;;;5427730;26;20006;-60
2024/04/17 08:37:13;;;;;;;0.82;0.60;;;20.90;47.20;;;;;;5428730;26;19999;-60
2024/04/17 08:39:38;;;;;;;1.02;0.70;;;20.90;47.20;;;;;;5431644;26;20091;-61
2024/04/17 08:42:06;;;;;;;1.10;0.80;;;20.90;47.20;;;;;;5426976;26;20003;-61
2024/04/17 08:44:34;;;;;;;1.23;0.60;;;20.90;47.20;;;;;;5427560;26;19999;-61
2024/04/17 08:47:04;;;;;;;1.17;0.68;;;20.90;47.20;;;;;;5427613;26;20002;-61
2024/04/17 08:49:33;;;;;;;;;;;20.90;47.20;;;;;;5431918;26;20007;-61
2024/04/17 08:52:02;;;;;;;0.60;0.50;;;20.90;47.30;;;;;;5428214;26;19925;-61
2024/04/17 08:54:29;;;;;;;1.48;0.63;;;20.90;47.20;;;;;;5428751;26;19999;-61
2024/04/17 08:56:56;;;;;;;1.92;0.80;;;20.90;47.20;;;;;;5429630;26;20097;-61
2024/04/17 08:59:21;;;;;;;2.38;0.70;;;20.90;47.20;;;;;;5430024;26;20002;-62
2024/04/17 09:01:49;;;;;;;1.20;0.70;;;20.90;47.20;;;;;;5432125;26;19998;-61
2024/04/17 09:04:20;;;;;;;1.42;0.80;;;20.90;47.20;;;;;;5430034;26;20077;-62
2024/04/17 09:06:47;;;;;;;0.80;0.60;;;20.90;47.20;;;;;;5431675;26;20003;-62
2024/04/17 09:09:16;;;;;;;1.40;0.80;;;20.90;47.20;;;;;;5436403;26;20018;-61
2024/04/17 09:11:44;;;;;;;1.33;0.60;;;20.90;47.20;;;;;;5434060;26;20018;-61
2024/04/17 09:14:09;;;;;;;0.98;0.60;;;20.90;47.20;;;;;;5430931;26;20462;-61
2024/04/17 09:16:35;;;;;;;1.10;0.70;;;20.90;47.30;;;;;;5428919;26;20003;-60
2024/04/17 09:19:00;;;;;;;1.02;0.80;;;20.90;47.20;;;;;;5428777;26;20398;-61
2024/04/17 09:21:26;;;;;;;1.50;0.80;;;20.90;47.20;;;;;;5429793;26;20003;-60
2024/04/17 09:23:52;;;;;;;0.70;0.55;;;20.90;47.20;;;;;;5429770;26;20017;-61
2024/04/17 09:26:18;;;;;;;1.10;0.80;;;20.90;47.30;;;;;;5430231;26;20007;-61
2024/04/17 09:28:45;;;;;;;1.15;0.70;;;20.90;47.20;;;;;;5428149;26;20032;-60
2024/04/17 09:31:11;;;;;;;1.60;1.10;;;20.90;47.20;;;;;;5433522;26;20095;-60
2024/04/17 09:33:46;;;;;;;0.77;0.60;;;20.90;47.20;;;;;;5428119;26;20000;-60
2024/04/17 09:36:13;;;;;;;0.90;0.68;;;20.90;47.30;;;;;;5432456;26;20446;-61
2024/04/17 09:38:41;;;;;;;1.13;0.77;;;20.90;47.30;;;;;;5430456;26;20359;-61
2024/04/17 09:41:09;;;;;;;1.23;0.70;;;20.90;47.30;;;;;;5429384;26;20057;-61
2024/04/17 09:43:42;;;;;;;1.65;0.82;;;20.90;47.30;;;;;;5425470;26;20420;-61
2024/04/17 09:46:09;;;;;;;1.20;0.77;;;20.90;47.30;;;;;;5428108;26;19999;-61
2024/04/17 09:48:41;;;;;;;1.05;0.70;;;20.90;47.30;;;;;;5430737;26;19999;-61
2024/04/17 09:51:08;;;;;;;1.20;0.70;;;20.90;47.30;;;;;;5430097;26;20056;-61
2024/04/17 09:53:35;;;;;;;1.83;0.70;;;20.90;47.30;;;;;;5430567;26;20014;-61
2024/04/17 09:56:02;;;;;;;0.90;0.63;;;20.90;47.40;;;;;;5431666;26;20003;-62
2024/04/17 09:58:32;;;;;;;1.73;0.80;;;20.90;47.30;;;;;;5429745;26;20450;-61
2024/04/17 10:01:00;;;;;;;;;;;20.90;47.40;;;;;;5435627;26;20211;-61
2024/04/17 10:03:27;;;;;;;1.17;0.70;;;20.90;47.40;;;;;;5428317;26;19937;-61
2024/04/17 10:05:53;;;;;;;1.33;0.80;;;20.90;47.30;;;;;;5430653;26;20547;-61
2024/04/17 10:08:20;;;;;;;1.42;0.90;;;20.80;47.30;;;;;;5429123;26;19996;-61
2024/04/17 10:10:46;;;;;;;1.15;0.80;;;20.90;47.30;;;;;;5432247;26;19999;-61
2024/04/17 10:13:13;;;;;;;1.75;0.90;;;20.80;47.30;;;;;;5428069;26;20466;-61
2024/04/17 10:15:39;;;;;;;1.08;0.80;;;20.90;47.40;;;;;;5426940;26;20014;-61
2024/04/17 10:18:05;;;;;;;1.10;0.80;;;20.90;47.40;;;;;;5444035;26;19999;-61
2024/04/17 10:20:32;;;;;;;1.08;0.70;;;20.90;47.40;;;;;;5430128;26;20000;-61
2024/04/17 10:23:07;;;;;;;1.08;0.80;;;20.80;47.40;;;;;;5426044;26;20004;-61
2024/04/17 10:25:33;;;;;;;1.23;0.70;;;20.90;47.50;;;;;;5430278;26;20015;-61
2024/04/17 10:28:09;;;;;;;1.50;0.80;;;20.80;47.50;;;;;;5427494;26;20010;-61
2024/04/17 10:30:38;;;;;;;1.10;0.77;;;20.80;47.60;;;;;;5430476;26;20048;-61
2024/04/17 10:33:19;;;;;;;1.25;0.70;;;20.90;47.60;;;;;;5431621;26;20000;-61
2024/04/17 10:35:51;;;;;;;1.13;0.77;;;20.80;47.70;;;;;;5428077;26;20344;-63
2024/04/17 10:38:17;;;;;;;1.20;0.90;;;20.90;47.70;;;;;;5428386;26;20427;-63
2024/04/17 10:40:45;;;;;;;1.58;0.90;;;20.80;47.70;;;;;;5433026;26;20002;-64
2024/04/17 10:43:12;;;;;;;1.55;1.00;;;20.80;47.70;;;;;;5427985;26;20071;-67
2024/04/17 10:45:44;;;;;;;1.30;0.80;;;20.90;47.80;;;;;;5433673;26;20011;-64
2024/04/17 10:48:15;;;;;;;2.08;1.00;;;20.80;47.80;;;;;;5431868;26;20002;-63
2024/04/17 10:50:41;;;;;;;1.38;0.70;;;20.90;48.20;;;;;;5424771;26;20030;-63
2024/04/17 10:53:09;;;;;;;2.65;1.00;;;20.90;48.10;;;;;;5427041;26;20015;-63
2024/04/17 10:55:35;;;;;;;1.25;0.77;;;20.90;48.20;;;;;;5432385;26;19999;-62
2024/04/17 10:58:02;;;;;;;2.25;0.98;;;20.90;48.00;;;;;;5425653;26;21096;-63
2024/04/17 11:00:29;;;;;;;1.17;0.70;;;20.80;48.10;;;;;;5433139;26;20002;-63
2024/04/17 11:02:54;;;;;;;1.45;0.85;;;20.90;48.20;;;;;;5426212;26;20006;-63
2024/04/17 11:05:24;;;;;;;1.30;0.88;;;20.90;48.20;;;;;;5430159;26;20023;-63
2024/04/17 11:07:49;;;;;;;2.00;0.80;;;20.90;48.30;;;;;;5428450;26;19999;-63
2024/04/17 11:10:16;;;;;;;1.33;0.82;;;20.90;48.30;;;;;;5428198;26;20006;-63
2024/04/17 11:12:42;;;;;;;1.90;0.88;;;20.90;48.40;;;;;;5428117;26;20026;-63
2024/04/17 11:15:07;;;;;;;1.60;0.80;;;20.90;48.40;;;;;;5433579;26;20356;-63
2024/04/17 11:17:33;;;;;;;2.05;0.90;;;20.90;48.40;;;;;;5426098;26;19995;-64
2024/04/17 11:19:59;;;;;;;3.97;1.05;;;20.90;48.30;;;;;;5428602;26;20523;-63
2024/04/17 11:22:24;;;;;;;1.90;0.80;;;20.90;49.20;;;;;;5427363;26;20051;-63
2024/04/17 11:24:57;;;;;;;2.92;0.90;;;20.90;48.70;;;;;;5429194;26;20738;-63
2024/04/17 11:27:22;;;;;;;2.20;0.93;;;20.90;48.60;;;;;;5423833;26;20393;-63
2024/04/17 11:29:48;;;;;;;1.58;0.80;;;20.90;48.50;;;;;;5426116;26;20003;-64
2024/04/17 11:32:15;;;;;;;1.45;0.80;;;20.90;48.40;;;;;;5429694;26;20067;-63
2024/04/17 11:34:40;;;;;;;1.70;0.88;;;20.90;48.40;;;;;;5432487;26;20407;-63
2024/04/17 11:37:07;;;;;;;2.47;0.90;;;20.90;48.50;;;;;;5426553;26;20010;-63
2024/04/17 11:39:36;;;;;;;1.02;0.75;;;21.00;48.50;;;;;;5428511;26;20467;-64
2024/04/17 11:42:04;;;;;;;1.77;0.80;;;20.90;48.50;;;;;;5426949;26;20132;-63
2024/04/17 11:44:37;;;;;;;0.80;0.68;;;21.00;48.50;;;;;;5423903;26;20018;-64
2024/04/17 11:47:07;;;;;;;1.33;0.70;;;21.00;48.50;;;;;;5425116;26;20010;-63
2024/04/17 11:49:33;;;;;;;2.22;1.00;;;21.00;48.40;;;;;;5429656;26;20617;-63
2024/04/17 11:51:59;;;;;;;1.48;0.90;;;21.10;48.40;;;;;;5430563;26;20003;-64
2024/04/17 11:54:26;;;;;;;1.48;0.90;;;21.00;48.30;;;;;;5428382;26;20000;-63
2024/04/17 11:56:52;;;;;;;2.53;1.10;;;21.00;48.20;;;;;;5428494;26;20593;-63
2024/04/17 11:59:17;;;;;;;1.75;0.88;;;21.00;48.20;;;;;;5439947;26;20125;-64
2024/04/17 12:01:43;;;;;;;3.88;1.15;;;21.00;48.20;;;;;;5425330;26;20437;-63
2024/04/17 12:04:09;;;;;;;2.10;0.77;;;21.00;48.20;;;;;;5422080;26;20003;-64
2024/04/17 12:06:34;;;;;;;1.38;0.80;;;21.00;48.20;;;;;;5426540;26;20469;-63
2024/04/17 12:09:01;;;;;;;1.00;0.70;;;21.10;48.20;;;;;;5427858;26;20312;-63
2024/04/17 12:11:26;;;;;;;1.77;0.80;;;21.00;48.20;;;;;;5428176;26;19999;-63
2024/04/17 12:13:52;;;;;;;1.35;0.70;;;21.10;48.20;;;;;;5426319;26;19996;-64
2024/04/17 12:16:18;;;;;;;1.83;0.95;;;21.10;48.20;;;;;;5427828;26;20356;-63
2024/04/17 12:18:43;;;;;;;2.40;0.80;;;21.10;48.20;;;;;;5426152;26;20011;-63
2024/04/17 12:21:09;;;;;;;1.88;0.95;;;21.10;48.10;;;;;;5429201;26;19999;-63
2024/04/17 12:23:35;;;;;;;1.88;0.90;;;21.10;48.10;;;;;;5426717;26;20519;-64
2024/04/17 12:28:46;;;;;;;1.50;0.80;;;21.10;48.00;;;;;;5420592;26;20014;-63
2024/04/17 12:31:12;;;;;;;1.23;0.77;;;21.10;48.00;;;;;;5426834;26;20338;-64
2024/04/17 12:33:37;;;;;;;1.85;0.90;;;21.10;48.00;;;;;;5431816;26;20072;-63
2024/04/17 12:36:04;;;;;;;1.40;0.88;;;21.10;48.00;;;;;;5427750;26;20005;-64
2024/04/17 12:38:29;;;;;;;1.58;0.70;;;21.10;48.00;;;;;;5427757;26;20009;-64
2024/04/17 12:40:56;;;;;;;1.88;0.80;;;21.10;48.00;;;;;;5440277;26;20451;-64
2024/04/17 12:43:21;;;;;;;4.38;1.40;;;21.10;48.00;;;;;;5420456;26;20007;-62
2024/04/17 12:45:47;;;;;;;2.65;1.00;;;21.10;48.00;;;;;;5425761;26;19996;-61